White Sands Missile Range, NM

10:25 PM MDT on September 26, 2016 (GMT -0600)
MesoWest | | Change Station

Elev 4005 ft 32.36 °N, 106.38 °W | Updated 25 minutes ago

Overcast
Overcast
57 °F
Feels Like 57 °F
N
4
Wind Variable Wind from SW
Gusts 5.0 mph

Today
High -- | Low -- °F
--% Chance of Precip.
Yesterday
High -- | Low -- °F
Precip. -- in
Pressure 30.35 in
Visibility 10.0 miles
Clouds Mostly Cloudy 4500 ft
Overcast 6500 ft
Dew Point 49 °F
Humidity 73%
Rainfall in
Snow Depth Not available.
6:56 AM 6:56 PM
Waning Crescent, 14% visible
METAR KLRU 270415Z AUTO 00000KT 10SM BKN045 OVC065 12/10 A3035 RMK AO2 T01200099
Pressure 30.35 in
Visibility 10.0 miles
Clouds Mostly Cloudy 4500 ft
Overcast 6500 ft
Dew Point 49 °F
Humidity 73%
Rainfall in
Snow Depth Not available.
6:56 AM 6:56 PM
Waning Crescent, 14% visible
METAR KLRU 270415Z AUTO 00000KT 10SM BKN045 OVC065 12/10 A3035 RMK AO2 T01200099

10-Day Weather Forecast

Almanac

Astronomy

Sep. 26, 2016 Rise Set
Actual Time
Civil Twilight
Nautical Twilight
Astronomical Twilight
Moon
Length of Visible Light
Length of Day
Tomorrow will be .
, % of the Moon is Illuminated

Today's Extremes

State Highs State Lows

Community

WunderPhotos

Upload Photos

1,942,035 photos uploaded!

WunderBlog® & News

Nearby

Air Quality

  Air Quality AQ Index Pollutant
Not available.

Snow Depth

Station Depth Elevation

Earthquake Activity

City Distance Mag. Time & Date
Minimum magnitude displayed is 2.5.

Coastal Water Temperatures

Place Temperature

Stations

Nearby Weather Stations

Station Location Temp. Windchill Dew Point Humidity Wind Precip. Elev Updated Type
                   

Watches & Warnings

There are currently no watches in effect.